Time,TemperatureF,DewpointF,PressureIn,WindDirection,WindDirectionDegrees,WindSpeedMPH,WindSpeedGustMPH,Humidity,HourlyPrecipIn,Conditions,Clouds,dailyrainin,SoftwareType,DateUTC
2013-06-19 00:00:00,60.8,54.6,29.91,ENE,60,0.0,0.0,80,0.00,,---,0.00,VWS V14.01,2013-06-19 04:00:00,
2013-06-19 00:01:00,60.8,54.6,29.91,ENE,60,0.0,0.0,80,0.00,,---,0.00,VWS V14.01,2013-06-19 04:01:00,
2013-06-19 00:06:00,60.8,54.6,29.91,ENE,60,0.0,0.0,80,0.00,,---,0.00,VWS V14.01,2013-06-19 04:06:00,
2013-06-19 00:11:00,60.8,54.6,29.91,ENE,59,0.0,4.0,80,0.00,,---,0.00,VWS V14.01,2013-06-19 04:11:00,
2013-06-19 08:48:00,60.3,50.1,30.03,North,356,0.0,0.0,69,0.00,,---,0.00,VWS V14.01,2013-06-19 12:48:00,
2013-06-19 08:53:00,60.4,49.4,30.03,North,356,3.6,3.6,67,0.00,,---,0.00,VWS V14.01,2013-06-19 12:53:00,
2013-06-19 08:58:00,60.6,48.8,30.03,North,356,0.0,3.6,65,0.00,,---,0.00,VWS V14.01,2013-06-19 12:58:00,
2013-06-19 09:03:00,61.0,48.3,30.03,North,356,4.0,4.5,63,0.00,,---,0.00,VWS V14.01,2013-06-19 13:03:00,
2013-06-19 09:08:00,61.2,46.7,30.03,North,356,0.0,4.0,59,0.00,,---,0.00,VWS V14.01,2013-06-19 13:08:00,
2013-06-19 09:13:00,61.3,45.0,30.03,North,356,0.0,2.7,55,0.00,,---,0.00,VWS V14.01,2013-06-19 13:13:00,
2013-06-19 09:18:00,61.5,43.8,30.03,North,356,0.0,3.1,52,0.00,,---,0.00,VWS V14.01,2013-06-19 13:18:00,
2013-06-19 09:23:00,61.9,42.5,30.03,North,356,0.0,4.5,49,0.00,,---,0.00,VWS V14.01,2013-06-19 13:23:00,
2013-06-19 09:28:00,62.1,41.1,30.03,North,356,2.7,4.0,46,0.00,,---,0.00,VWS V14.01,2013-06-19 13:28:00,
2013-06-19 09:33:00,62.2,40.1,30.03,North,0,0.0,2.7,44,0.00,,---,0.00,VWS V14.01,2013-06-19 13:33:00,
2013-06-19 09:38:00,62.6,39.8,30.03,North,0,2.7,3.6,43,0.00,,---,0.00,VWS V14.01,2013-06-19 13:38:00,
2013-06-19 09:43:00,62.8,38.1,30.03,NNE,12,3.6,6.7,40,0.00,,---,0.00,VWS V14.01,2013-06-19 13:43:00,
2013-06-19 09:48:00,63.0,37.6,30.03,NNE,12,3.1,3.6,39,0.00,,---,0.00,VWS V14.01,2013-06-19 13:48:00,
2013-06-19 09:53:00,63.3,37.3,30.03,NNE,12,0.0,4.5,38,0.00,,---,0.00,VWS V14.01,2013-06-19 13:53:00,
2013-06-19 09:58:00,63.5,36.1,30.03,ENE,69,4.0,4.5,36,0.00,,---,0.00,VWS V14.01,2013-06-19 13:58:00,
2013-06-19 10:03:00,63.7,36.2,30.03,SW,234,2.7,6.9,36,0.00,,---,0.00,VWS V14.01,2013-06-19 14:03:00,
2013-06-19 10:08:00,64.0,36.6,30.03,North,356,0.0,4.9,36,0.00,,---,0.00,VWS V14.01,2013-06-19 14:08:00,
2013-06-19 10:13:00,64.4,36.9,30.03,WSW,252,3.6,5.4,36,0.00,,---,0.00,VWS V14.01,2013-06-19 14:13:00,
2013-06-19 10:18:00,64.6,36.3,30.03,North,5,3.1,4.5,35,0.00,,---,0.00,VWS V14.01,2013-06-19 14:18:00,
2013-06-19 10:23:00,64.8,35.8,30.03,North,356,3.1,4.5,34,0.00,,---,0.00,VWS V14.01,2013-06-19 14:23:00,
2013-06-19 10:28:00,65.1,36.1,30.03,West,273,2.7,5.8,34,0.00,,---,0.00,VWS V14.01,2013-06-19 14:28:00,
2013-06-19 10:33:00,65.3,35.5,30.03,NNW,339,2.7,6.7,33,0.00,,---,0.00,VWS V14.01,2013-06-19 14:33:00,
2013-06-19 10:38:00,65.5,35.6,30.03,West,273,7.4,7.4,33,0.00,,---,0.00,VWS V14.01,2013-06-19 14:38:00,
2013-06-19 10:43:00,65.8,36.0,30.03,West,266,0.0,7.4,33,0.00,,---,0.00,VWS V14.01,2013-06-19 14:43:00,
2013-06-19 10:48:00,66.0,36.1,30.03,NW,322,2.7,5.4,33,0.00,,---,0.00,VWS V14.01,2013-06-19 14:48:00,
2013-06-19 10:53:00,66.4,35.7,30.03,NNW,338,2.7,7.8,32,0.00,,---,0.00,VWS V14.01,2013-06-19 14:53:00,
2013-06-19 10:58:00,66.6,34.2,30.03,West,273,6.3,9.2,30,0.00,,---,0.00,VWS V14.01,2013-06-19 14:58:00,
2013-06-19 11:03:00,66.6,35.8,30.03,WSW,250,2.7,7.8,32,0.00,,---,0.00,VWS V14.01,2013-06-19 15:03:00,
2013-06-19 11:08:00,66.4,35.7,30.03,NNE,24,4.5,5.4,32,0.00,,---,0.00,VWS V14.01,2013-06-19 15:08:00,
2013-06-19 11:13:00,66.7,35.2,30.03,NNE,27,2.7,6.7,31,0.00,,---,0.00,VWS V14.01,2013-06-19 15:13:00,
2013-06-19 11:18:00,67.8,36.9,30.03,West,273,0.0,6.7,32,0.00,,---,0.00,VWS V14.01,2013-06-19 15:18:00,
2013-06-19 11:24:00,68.0,35.4,30.03,West,273,2.7,3.6,30,0.00,,---,0.00,VWS V14.01,2013-06-19 15:24:00,
2013-06-19 11:29:00,68.0,31.9,30.03,North,351,4.5,6.7,26,0.00,,---,0.00,VWS V14.01,2013-06-19 15:29:00,
2013-06-19 11:34:00,68.4,31.2,30.03,West,264,6.3,9.6,25,0.00,,---,0.00,VWS V14.01,2013-06-19 15:34:00,
2013-06-19 11:39:00,69.3,32.0,30.06,NE,37,3.6,6.9,25,0.00,,---,0.00,VWS V14.01,2013-06-19 15:39:00,
2013-06-19 11:44:00,69.3,29.9,30.06,ENE,60,3.6,7.8,23,0.00,,---,0.00,VWS V14.01,2013-06-19 15:44:00,
2013-06-19 11:49:00,68.9,30.6,30.06,North,351,2.7,4.9,24,0.00,,---,0.00,VWS V14.01,2013-06-19 15:49:00,
2013-06-19 11:54:00,69.6,31.3,30.06,NNE,24,3.1,6.9,24,0.00,,---,0.00,VWS V14.01,2013-06-19 15:54:00,
2013-06-19 11:59:00,70.2,30.7,30.06,West,278,0.0,6.9,23,0.00,,---,0.00,VWS V14.01,2013-06-19 15:59:00,
2013-06-19 12:04:00,70.7,30.0,30.06,West,278,4.9,4.9,22,0.00,,---,0.00,VWS V14.01,2013-06-19 16:04:00,
2013-06-19 12:09:00,72.0,27.5,30.03,WNW,291,0.0,9.6,19,0.00,,---,0.00,VWS V14.01,2013-06-19 16:09:00,
2013-06-19 12:14:00,71.8,23.2,30.03,North,1,0.0,5.8,16,0.00,,---,0.00,VWS V14.01,2013-06-19 16:14:00,
2013-06-19 12:19:00,72.1,23.5,30.03,NNE,17,0.0,5.8,16,0.00,,---,0.00,VWS V14.01,2013-06-19 16:19:00,
2013-06-19 12:24:00,72.1,23.5,30.03,NE,42,5.8,7.4,16,0.00,,---,0.00,VWS V14.01,2013-06-19 16:24:00,
2013-06-19 12:29:00,71.8,23.2,30.03,North,11,3.1,9.6,16,0.00,,---,0.00,VWS V14.01,2013-06-19 16:29:00,
2013-06-19 12:34:00,72.1,27.6,30.03,NE,48,4.0,5.4,19,0.00,,---,0.00,VWS V14.01,2013-06-19 16:34:00,
2013-06-19 12:39:00,72.1,20.4,30.03,NNE,22,2.7,6.9,14,0.00,,---,0.00,VWS V14.01,2013-06-19 16:39:00,
2013-06-19 12:44:00,72.7,23.9,30.03,NNE,31,0.0,5.4,16,0.00,,---,0.00,VWS V14.01,2013-06-19 16:44:00,
2013-06-19 12:49:00,73.2,24.4,30.03,North,9,2.7,6.9,16,0.00,,---,0.00,VWS V14.01,2013-06-19 16:49:00,
2013-06-19 12:54:00,74.1,25.1,30.06,West,267,10.1,10.1,16,0.00,,---,0.00,VWS V14.01,2013-06-19 16:54:00,
2013-06-19 12:59:00,74.3,20.3,30.06,WNW,298,4.9,10.1,13,0.00,,---,0.00,VWS V14.01,2013-06-19 16:59:00,
2013-06-19 13:04:00,74.5,20.5,30.06,WNW,300,6.7,8.3,13,0.00,,---,0.00,VWS V14.01,2013-06-19 17:04:00,
2013-06-19 13:09:00,74.8,20.7,30.06,NNE,33,4.0,6.9,13,0.00,,---,0.00,VWS V14.01,2013-06-19 17:09:00,
2013-06-19 13:14:00,73.9,20.0,30.06,NNE,26,3.6,7.4,13,0.00,,---,0.00,VWS V14.01,2013-06-19 17:14:00,
2013-06-19 13:19:00,74.5,20.5,30.06,NE,52,5.4,12.5,13,0.00,,---,0.00,VWS V14.01,2013-06-19 17:19:00,
2013-06-19 13:24:00,74.5,14.4,30.06,NE,56,3.6,6.7,10,0.00,,---,0.00,VWS V14.01,2013-06-19 17:24:00,
2013-06-19 13:29:00,74.8,14.7,30.06,WNW,289,10.1,11.6,10,0.00,,---,0.00,VWS V14.01,2013-06-19 17:29:00,
2013-06-19 13:34:00,75.4,15.1,30.06,WSW,246,6.3,11.0,10,0.00,,---,0.00,VWS V14.01,2013-06-19 17:34:00,
2013-06-19 13:39:00,76.3,21.9,30.06,West,263,4.5,7.4,13,0.00,,---,0.00,VWS V14.01,2013-06-19 17:39:00,
2013-06-19 13:44:00,76.3,15.8,30.06,WNW,290,0.0,8.3,10,0.00,,---,0.00,VWS V14.01,2013-06-19 17:44:00,
2013-06-19 13:49:00,76.1,15.6,30.06,NNE,25,3.6,6.7,10,0.00,,---,0.00,VWS V14.01,2013-06-19 17:49:00,
2013-06-19 13:54:00,76.1,15.6,30.06,West,263,11.6,13.9,10,0.00,,---,0.00,VWS V14.01,2013-06-19 17:54:00,
2013-06-19 13:59:00,76.1,15.6,30.06,WSW,257,2.7,10.5,10,0.00,,---,0.00,VWS V14.01,2013-06-19 17:59:00,
2013-06-19 14:04:00,75.7,15.4,30.06,NNE,27,4.0,8.7,10,0.00,,---,0.00,VWS V14.01,2013-06-19 18:04:00,
2013-06-19 14:09:00,75.6,15.2,30.06,North,11,3.1,6.9,10,0.00,,---,0.00,VWS V14.01,2013-06-19 18:09:00,
2013-06-19 14:14:00,75.7,15.4,30.06,NNE,16,4.5,7.4,10,0.00,,---,0.00,VWS V14.01,2013-06-19 18:14:00,
2013-06-19 14:19:00,76.1,15.6,30.06,NNE,23,3.6,9.2,10,0.00,,---,0.00,VWS V14.01,2013-06-19 18:19:00,
2013-06-19 14:24:00,77.2,16.5,30.06,West,272,2.7,8.7,10,0.00,,---,0.00,VWS V14.01,2013-06-19 18:24:00,
2013-06-19 14:29:00,77.4,16.6,30.06,NE,38,3.1,5.8,10,0.00,,---,0.00,VWS V14.01,2013-06-19 18:29:00,
2013-06-19 14:34:00,77.9,17.0,30.06,East,80,4.0,6.9,10,0.00,,---,0.00,VWS V14.01,2013-06-19 18:34:00,
2013-06-19 14:39:00,78.1,17.1,30.06,West,276,4.9,7.8,10,0.00,,---,0.00,VWS V14.01,2013-06-19 18:39:00,
2013-06-19 14:44:00,78.3,17.3,30.06,North,2,0.0,4.9,10,0.00,,---,0.00,VWS V14.01,2013-06-19 18:44:00,
2013-06-19 14:49:00,78.3,17.3,30.06,WSW,240,6.7,8.7,10,0.00,,---,0.00,VWS V14.01,2013-06-19 18:49:00,
2013-06-19 14:54:00,78.4,17.4,30.06,WNW,283,5.4,11.6,10,0.00,,---,0.00,VWS V14.01,2013-06-19 18:54:00,
2013-06-19 14:59:00,78.6,17.5,30.06,NW,325,8.7,13.4,10,0.00,,---,0.00,VWS V14.01,2013-06-19 18:59:00,
2013-06-19 15:04:00,79.2,18.0,30.06,WSW,248,4.5,10.1,10,0.00,,---,0.00,VWS V14.01,2013-06-19 19:04:00,
2013-06-19 15:09:00,79.0,17.8,30.06,NE,34,5.8,9.6,10,0.00,,---,0.00,VWS V14.01,2013-06-19 19:09:00,
2013-06-19 15:14:00,78.6,17.5,30.06,WNW,286,3.6,8.7,10,0.00,,---,0.00,VWS V14.01,2013-06-19 19:14:00,
2013-06-19 15:19:00,79.5,18.2,30.06,West,262,5.4,7.4,10,0.00,,---,0.00,VWS V14.01,2013-06-19 19:19:00,
2013-06-19 15:24:00,79.3,18.1,30.06,West,264,3.1,4.5,10,0.00,,---,0.00,VWS V14.01,2013-06-19 19:24:00,
2013-06-19 15:29:00,79.7,18.4,30.06,NE,39,0.0,8.7,10,0.00,,---,0.00,VWS V14.01,2013-06-19 19:29:00,
2013-06-19 15:34:00,79.7,18.4,30.06,WSW,258,5.8,5.8,10,0.00,,---,0.00,VWS V14.01,2013-06-19 19:34:00,
2013-06-19 15:39:00,79.7,18.4,30.06,WNW,291,6.9,9.6,10,0.00,,---,0.00,VWS V14.01,2013-06-19 19:39:00,
2013-06-19 15:44:00,80.4,18.9,30.06,West,270,3.6,8.3,10,0.00,,---,0.00,VWS V14.01,2013-06-19 19:44:00,
2013-06-19 15:49:00,80.1,18.6,30.06,NE,51,3.6,5.4,10,0.00,,---,0.00,VWS V14.01,2013-06-19 19:49:00,
2013-06-19 15:54:00,79.7,18.4,30.06,West,280,5.8,8.7,10,0.00,,---,0.00,VWS V14.01,2013-06-19 19:54:00,
2013-06-19 15:59:00,80.1,18.6,30.06,North,356,3.1,4.9,10,0.00,,---,0.00,VWS V14.01,2013-06-19 19:59:00,
2013-06-19 16:04:00,81.0,19.3,30.06,NNW,339,0.0,6.7,10,0.00,,---,0.00,VWS V14.01,2013-06-19 20:04:00,
2013-06-19 16:09:00,80.6,19.0,30.06,ESE,122,2.7,5.8,10,0.00,,---,0.00,VWS V14.01,2013-06-19 20:09:00,
2013-06-19 16:14:00,79.5,18.2,30.06,ENE,71,0.0,4.9,10,0.00,,---,0.00,VWS V14.01,2013-06-19 20:14:00,
2013-06-19 16:19:00,80.4,18.9,30.06,NW,310,5.4,6.9,10,0.00,,---,0.00,VWS V14.01,2013-06-19 20:19:00,
2013-06-19 16:24:00,81.1,19.5,30.06,NNW,327,0.0,6.7,10,0.00,,---,0.00,VWS V14.01,2013-06-19 20:24:00,
2013-06-19 16:29:00,81.0,19.3,30.06,NE,42,3.6,7.8,10,0.00,,---,0.00,VWS V14.01,2013-06-19 20:29:00,
2013-06-19 16:34:00,80.8,19.2,30.06,North,3,3.1,6.7,10,0.00,,---,0.00,VWS V14.01,2013-06-19 20:34:00,
2013-06-19 16:39:00,80.6,19.0,30.06,North,6,2.7,5.4,10,0.00,,---,0.00,VWS V14.01,2013-06-19 20:39:00,
2013-06-19 16:44:00,80.2,18.8,30.06,NNE,24,0.0,6.3,10,0.00,,---,0.00,VWS V14.01,2013-06-19 20:44:00,
2013-06-19 16:49:00,79.7,18.4,30.06,NNE,27,4.0,4.5,10,0.00,,---,0.00,VWS V14.01,2013-06-19 20:49:00,
2013-06-19 16:54:00,80.2,18.8,30.06,NNE,19,0.0,5.4,10,0.00,,---,0.00,VWS V14.01,2013-06-19 20:54:00,
2013-06-19 16:59:00,80.2,18.8,30.06,North,8,3.6,5.4,10,0.00,,---,0.00,VWS V14.01,2013-06-19 20:59:00,
2013-06-19 17:04:00,79.5,18.2,30.06,NNE,14,2.7,4.9,10,0.00,,---,0.00,VWS V14.01,2013-06-19 21:04:00,
2013-06-19 17:09:00,79.2,18.0,30.06,NNE,14,0.0,4.5,10,0.00,,---,0.00,VWS V14.01,2013-06-19 21:09:00,
2013-06-19 17:14:00,79.0,17.8,30.06,NE,54,0.0,5.8,10,0.00,,---,0.00,VWS V14.01,2013-06-19 21:14:00,
2013-06-19 17:19:00,78.4,17.4,30.06,North,356,2.7,4.9,10,0.00,,---,0.00,VWS V14.01,2013-06-19 21:19:00,
2013-06-19 17:24:00,78.6,17.5,30.06,North,356,0.0,4.0,10,0.00,,---,0.00,VWS V14.01,2013-06-19 21:24:00,
2013-06-19 17:30:00,79.0,17.8,30.06,NNE,14,0.0,6.7,10,0.00,,---,0.00,VWS V14.01,2013-06-19 21:30:00,
2013-06-19 17:34:00,79.0,17.8,30.06,NNE,14,3.1,4.0,10,0.00,,---,0.00,VWS V14.01,2013-06-19 21:34:00,
2013-06-19 17:39:00,79.5,18.2,30.06,NNE,13,3.6,4.0,10,0.00,,---,0.00,VWS V14.01,2013-06-19 21:39:00,
2013-06-19 17:44:00,79.3,18.1,30.06,NNE,21,3.6,5.4,10,0.00,,---,0.00,VWS V14.01,2013-06-19 21:44:00,
2013-06-19 17:49:00,79.2,18.0,30.06,SW,235,3.1,6.3,10,0.00,,---,0.00,VWS V14.01,2013-06-19 21:49:00,
2013-06-19 17:55:00,79.2,18.0,30.06,WNW,290,0.0,6.3,10,0.00,,---,0.00,VWS V14.01,2013-06-19 21:55:00,
2013-06-19 18:00:00,77.9,17.0,30.06,NW,318,0.0,4.5,10,0.00,,---,0.00,VWS V14.01,2013-06-19 22:00:00,
2013-06-19 18:05:00,77.7,16.9,30.06,NNW,332,0.0,4.9,10,0.00,,---,0.00,VWS V14.01,2013-06-19 22:05:00,
2013-06-19 18:10:00,77.5,16.7,30.06,NNW,333,4.0,4.0,10,0.00,,---,0.00,VWS V14.01,2013-06-19 22:10:00,
2013-06-19 18:15:00,77.9,17.0,30.06,WSW,256,4.5,6.3,10,0.00,,---,0.00,VWS V14.01,2013-06-19 22:15:00,
2013-06-19 18:20:00,77.4,16.6,30.06,WSW,256,3.1,4.5,10,0.00,,---,0.00,VWS V14.01,2013-06-19 22:20:00,
2013-06-19 18:25:00,76.8,16.2,30.06,West,262,0.0,3.1,10,0.00,,---,0.00,VWS V14.01,2013-06-19 22:25:00,
2013-06-19 18:30:00,77.0,16.3,30.06,West,262,0.0,4.0,10,0.00,,---,0.00,VWS V14.01,2013-06-19 22:30:00,
2013-06-19 18:35:00,76.1,15.6,30.06,West,276,3.1,4.0,10,0.00,,---,0.00,VWS V14.01,2013-06-19 22:35:00,
2013-06-19 18:40:00,75.7,15.4,30.06,West,277,2.7,4.5,10,0.00,,---,0.00,VWS V14.01,2013-06-19 22:40:00,
2013-06-19 18:45:00,75.7,15.4,30.06,NNW,333,0.0,3.6,10,0.00,,---,0.00,VWS V14.01,2013-06-19 22:45:00,
2013-06-19 18:50:00,75.2,14.9,30.06,NNW,333,0.0,2.7,10,0.00,,---,0.00,VWS V14.01,2013-06-19 22:50:00,
2013-06-19 18:55:00,73.9,14.0,30.06,NNW,333,0.0,0.0,10,0.00,,---,0.00,VWS V14.01,2013-06-19 22:55:00,
2013-06-19 19:00:00,73.2,13.4,30.06,NNW,333,0.0,0.0,10,0.00,,---,0.00,VWS V14.01,2013-06-19 23:00:00,
2013-06-19 19:05:00,72.5,12.9,30.06,NNW,333,0.0,0.0,10,0.00,,---,0.00,VWS V14.01,2013-06-19 23:05:00,
2013-06-19 19:10:00,71.8,14.5,30.09,NNW,333,0.0,0.0,11,0.00,,---,0.00,VWS V14.01,2013-06-19 23:10:00,
2013-06-19 19:15:00,71.6,14.4,30.09,NNW,333,0.0,0.0,11,0.00,,---,0.00,VWS V14.01,2013-06-19 23:15:00,
2013-06-19 19:20:00,71.2,14.1,30.09,NNW,333,0.0,0.0,11,0.00,,---,0.00,VWS V14.01,2013-06-19 23:20:00,
2013-06-19 19:25:00,70.7,13.6,30.09,NNW,333,0.0,3.1,11,0.00,,---,0.00,VWS V14.01,2013-06-19 23:25:00,
2013-06-19 19:30:00,70.3,15.4,30.09,NNW,333,0.0,2.7,12,0.00,,---,0.00,VWS V14.01,2013-06-19 23:30:00,
2013-06-19 19:35:00,70.2,15.2,30.09,NNW,333,0.0,0.0,12,0.00,,---,0.00,VWS V14.01,2013-06-19 23:35:00,
2013-06-19 19:40:00,69.8,14.9,30.09,NNW,333,0.0,0.0,12,0.00,,---,0.00,VWS V14.01,2013-06-19 23:40:00,
2013-06-19 19:45:00,69.4,14.6,30.09,NNW,333,0.0,0.0,12,0.00,,---,0.00,VWS V14.01,2013-06-19 23:45:00,
2013-06-19 19:50:00,68.9,17.8,30.09,NNW,333,0.0,0.0,14,0.00,,---,0.00,VWS V14.01,2013-06-19 23:50:00,
2013-06-19 19:55:00,68.5,19.1,30.09,NNW,333,0.0,0.0,15,0.00,,---,0.00,VWS V14.01,2013-06-19 23:55:00,
2013-06-19 20:00:00,68.0,18.7,30.09,NNW,333,0.0,0.0,15,0.00,,---,0.00,VWS V14.01,2013-06-20 00:00:00,
2013-06-19 20:05:00,67.5,25.0,30.09,NNW,333,0.0,0.0,20,0.00,,---,0.00,VWS V14.01,2013-06-20 00:05:00,
2013-06-19 20:10:00,66.9,27.9,30.09,NNW,333,0.0,0.0,23,0.00,,---,0.00,VWS V14.01,2013-06-20 00:10:00,
2013-06-19 20:15:00,66.4,29.5,30.09,NNW,333,0.0,0.0,25,0.00,,---,0.00,VWS V14.01,2013-06-20 00:15:00,
2013-06-19 20:20:00,66.0,30.2,30.09,NNW,333,0.0,0.0,26,0.00,,---,0.00,VWS V14.01,2013-06-20 00:20:00,
2013-06-19 20:25:00,65.7,30.8,30.12,NNW,333,0.0,0.0,27,0.00,,---,0.00,VWS V14.01,2013-06-20 00:25:00,
2013-06-19 20:30:00,65.3,32.3,30.12,NNW,333,0.0,0.0,29,0.00,,---,0.00,VWS V14.01,2013-06-20 00:30:00,
2013-06-19 20:35:00,64.8,34.2,30.12,NNW,333,0.0,0.0,32,0.00,,---,0.00,VWS V14.01,2013-06-20 00:35:00,
2013-06-19 20:40:00,64.4,34.7,30.12,NNW,333,0.0,0.0,33,0.00,,---,0.00,VWS V14.01,2013-06-20 00:40:00,
2013-06-19 20:45:00,64.0,35.1,30.12,NNW,333,0.0,0.0,34,0.00,,---,0.00,VWS V14.01,2013-06-20 00:45:00,
2013-06-19 20:50:00,63.5,35.4,30.12,NNW,333,0.0,0.0,35,0.00,,---,0.00,VWS V14.01,2013-06-20 00:50:00,
2013-06-19 20:55:00,63.1,35.1,30.12,NNW,333,0.0,0.0,35,0.00,,---,0.00,VWS V14.01,2013-06-20 00:55:00,
2013-06-19 21:00:00,63.1,35.1,30.12,NNW,333,0.0,0.0,35,0.00,,---,0.00,VWS V14.01,2013-06-20 01:00:00,
2013-06-19 21:05:00,63.0,34.2,30.12,NNW,333,0.0,0.0,34,0.00,,---,0.00,VWS V14.01,2013-06-20 01:05:00,
2013-06-19 21:10:00,62.6,34.6,30.12,NNW,333,0.0,0.0,35,0.00,,---,0.00,VWS V14.01,2013-06-20 01:10:00,
2013-06-19 21:15:00,62.2,35.0,30.12,NNW,333,0.0,0.0,36,0.00,,---,0.00,VWS V14.01,2013-06-20 01:15:00,
2013-06-19 21:20:00,61.9,34.7,30.12,NNW,333,0.0,0.0,36,0.00,,---,0.00,VWS V14.01,2013-06-20 01:20:00,
2013-06-19 21:25:00,61.7,35.2,30.12,NNW,333,0.0,0.0,37,0.00,,---,0.00,VWS V14.01,2013-06-20 01:25:00,
2013-06-19 21:30:00,61.3,34.9,30.12,NNW,333,0.0,0.0,37,0.00,,---,0.00,VWS V14.01,2013-06-20 01:30:00,
2013-06-19 21:35:00,61.3,34.9,30.12,NNW,333,0.0,0.0,37,0.00,,---,0.00,VWS V14.01,2013-06-20 01:35:00,
2013-06-19 21:40:00,61.2,34.7,30.12,NNW,333,0.0,0.0,37,0.00,,---,0.00,VWS V14.01,2013-06-20 01:40:00,
2013-06-19 21:45:00,61.0,34.5,30.12,NNW,333,0.0,0.0,37,0.00,,---,0.00,VWS V14.01,2013-06-20 01:45:00,
2013-06-19 21:50:00,60.6,33.5,30.12,NNW,333,0.0,0.0,36,0.00,,---,0.00,VWS V14.01,2013-06-20 01:50:00,
2013-06-19 21:55:00,60.4,34.1,30.15,NNW,333,0.0,0.0,37,0.00,,---,0.00,VWS V14.01,2013-06-20 01:55:00,
2013-06-19 22:00:00,60.3,34.6,30.15,NNW,333,0.0,0.0,38,0.00,,---,0.00,VWS V14.01,2013-06-20 02:00:00,
2013-06-19 22:05:00,59.9,34.9,30.15,NNW,333,0.0,0.0,39,0.00,,---,0.00,VWS V14.01,2013-06-20 02:05:00,
2013-06-19 22:10:00,59.5,34.6,30.15,NNW,333,0.0,0.0,39,0.00,,---,0.00,VWS V14.01,2013-06-20 02:10:00,
2013-06-19 22:15:00,59.4,34.4,30.15,NNW,333,0.0,0.0,39,0.00,,---,0.00,VWS V14.01,2013-06-20 02:15:00,
2013-06-19 22:20:00,59.2,34.9,30.15,NNW,333,0.0,0.0,40,0.00,,---,0.00,VWS V14.01,2013-06-20 02:20:00,
2013-06-19 22:25:00,59.2,34.9,30.15,NNW,333,0.0,0.0,40,0.00,,---,0.00,VWS V14.01,2013-06-20 02:25:00,
2013-06-19 22:30:00,59.0,34.7,30.15,NNW,333,0.0,0.0,40,0.00,,---,0.00,VWS V14.01,2013-06-20 02:30:00,
2013-06-19 22:35:00,58.8,35.2,30.15,NNW,333,0.0,0.0,41,0.00,,---,0.00,VWS V14.01,2013-06-20 02:35:00,
2013-06-19 22:40:00,58.5,36.1,30.15,NNW,333,0.0,0.0,43,0.00,,---,0.00,VWS V14.01,2013-06-20 02:40:00,
2013-06-19 22:45:00,58.3,36.5,30.15,NNW,333,0.0,0.0,44,0.00,,---,0.00,VWS V14.01,2013-06-20 02:45:00,
2013-06-19 22:50:00,58.1,36.9,30.15,NNW,333,0.0,0.0,45,0.00,,---,0.00,VWS V14.01,2013-06-20 02:50:00,
2013-06-19 22:55:00,57.9,37.3,30.15,NNW,333,0.0,0.0,46,0.00,,---,0.00,VWS V14.01,2013-06-20 02:55:00,
2013-06-19 23:00:00,57.7,37.7,30.15,NNW,333,0.0,0.0,47,0.00,,---,0.00,VWS V14.01,2013-06-20 03:00:00,
2013-06-19 23:05:00,57.9,37.8,30.15,NNW,333,0.0,0.0,47,0.00,,---,0.00,VWS V14.01,2013-06-20 03:05:00,
2013-06-19 23:10:00,57.7,37.7,30.15,NNW,333,0.0,0.0,47,0.00,,---,0.00,VWS V14.01,2013-06-20 03:10:00,
2013-06-19 23:15:00,57.7,37.7,30.15,NNW,333,0.0,0.0,47,0.00,,---,0.00,VWS V14.01,2013-06-20 03:15:00,
2013-06-19 23:20:00,57.6,38.0,30.15,NNW,333,0.0,0.0,48,0.00,,---,0.00,VWS V14.01,2013-06-20 03:20:00,
2013-06-19 23:25:00,57.6,38.0,30.18,NNW,333,0.0,0.0,48,0.00,,---,0.00,VWS V14.01,2013-06-20 03:25:00,
2013-06-19 23:30:00,57.6,38.6,30.18,NNW,333,0.0,0.0,49,0.00,,---,0.00,VWS V14.01,2013-06-20 03:30:00,
2013-06-19 23:35:00,57.4,38.4,30.18,NNW,333,0.0,0.0,49,0.00,,---,0.00,VWS V14.01,2013-06-20 03:35:00,
2013-06-19 23:40:00,57.4,38.9,30.18,NNW,333,0.0,0.0,50,0.00,,---,0.00,VWS V14.01,2013-06-20 03:40:00,
2013-06-19 23:45:00,57.4,38.9,30.18,NNW,333,0.0,0.0,50,0.00,,---,0.00,VWS V14.01,2013-06-20 03:45:00,
2013-06-19 23:50:00,57.4,38.9,30.18,NNW,333,0.0,0.0,50,0.00,,---,0.00,VWS V14.01,2013-06-20 03:50:00,
2013-06-19 23:55:00,57.4,38.9,30.18,NNW,333,0.0,0.0,50,0.00,,---,0.00,VWS V14.01,2013-06-20 03:55:00,